Time;durP1;ratioP1;P1;durP2;ratioP2;P2;SDS_P1;SDS_P2;PMS_P1;PMS_P2;Temp;Humidity;BMP_temperature;BMP_pressure;BME280_temperature;BME280_humidity;BME280_pressure;Samples;Min_cycle;Max_cycle;Signal;HPM_P1;HPM_P2
2023/08/02 00:00:06;;;;;;;2.67;1.40;;;;;;;17.60;99.21;98661.97;5094370;28;20097;-65
2023/08/02 00:02:42;;;;;;;2.05;1.70;;;;;;;17.62;99.25;98657.56;5094650;28;20154;-63
2023/08/02 00:05:11;;;;;;;4.10;2.30;;;;;;;17.55;99.24;98663.91;5094757;28;20046;-65
2023/08/02 00:07:40;;;;;;;3.03;2.05;;;;;;;17.53;99.32;98666.56;5094268;28;20504;-65
2023/08/02 00:10:09;;;;;;;2.40;2.25;;;;;;;17.51;99.38;98667.53;5094163;28;20044;-65
2023/08/02 00:12:40;;;;;;;2.20;1.63;;;;;;;17.49;99.46;98664.19;5094178;28;20112;-64
2023/08/02 00:15:09;;;;;;;3.08;1.08;;;;;;;17.41;99.21;98667.94;5094050;28;20501;-65
2023/08/02 00:17:38;;;;;;;3.15;1.77;;;;;;;17.40;99.38;98670.56;5094049;28;20055;-65
2023/08/02 00:20:08;;;;;;;2.33;2.13;;;;;;;17.36;99.46;98675.03;5094084;28;20063;-64
2023/08/02 00:22:37;;;;;;;3.42;3.03;;;;;;;17.33;99.59;98670.00;5094121;28;20040;-64
2023/08/02 00:25:07;;;;;;;1.15;1.08;;;;;;;17.30;99.44;98674.44;5094187;28;20117;-64
2023/08/02 00:27:36;;;;;;;2.65;1.92;;;;;;;17.27;99.24;98670.28;5093940;28;20051;-64
2023/08/02 00:30:08;;;;;;;1.45;1.20;;;;;;;17.25;99.21;98682.38;5092660;28;20128;-64
2023/08/02 00:32:44;;;;;;;1.65;1.45;;;;;;;17.25;99.31;98682.38;5094184;28;20075;-64
2023/08/02 00:35:13;;;;;;;4.07;3.22;;;;;;;17.26;99.36;98684.06;5092439;28;20131;-64
2023/08/02 00:37:42;;;;;;;4.07;2.22;;;;;;;17.29;99.40;98689.09;5092898;28;20047;-64
2023/08/02 00:40:13;;;;;;;12.25;2.58;;;;;;;17.35;99.37;98688.81;5093829;28;20486;-64
2023/08/02 00:42:42;;;;;;;2.88;2.13;;;;;;;17.33;99.01;98690.63;5092855;28;20043;-65
2023/08/02 00:45:12;;;;;;;2.53;2.00;;;;;;;17.36;99.02;98700.84;5094210;28;20514;-64
2023/08/02 00:47:41;;;;;;;2.30;1.70;;;;;;;17.32;98.92;98701.84;5093717;28;20342;-64
2023/08/02 00:50:11;;;;;;;2.43;1.30;;;;;;;17.32;98.54;98696.69;5093627;28;20044;-64
2023/08/02 00:52:40;;;;;;;4.05;2.95;;;;;;;17.33;98.31;98695.81;5093330;28;20697;-64
2023/08/02 00:55:09;;;;;;;2.43;1.80;;;;;;;17.33;98.35;98695.81;5092604;28;20143;-65
2023/08/02 00:57:37;;;;;;;2.70;1.45;;;;;;;17.28;98.07;98700.31;5092565;28;20036;-65
2023/08/02 01:00:08;;;;;;;2.37;1.73;;;;;;;17.22;97.75;98703.19;5093851;28;20071;-65
2023/08/02 01:02:38;;;;;;;2.38;1.38;;;;;;;17.21;97.74;98713.53;5093596;28;20269;-64
2023/08/02 01:05:07;;;;;;;3.22;2.35;;;;;;;17.25;97.94;98718.50;5092284;28;20041;-65
2023/08/02 01:07:48;;;;;;;2.88;1.88;;;;;;;17.14;97.15;98704.38;5092579;28;20541;-64
2023/08/02 01:10:26;;;;;;;3.03;2.33;;;;;;;17.01;96.56;98698.91;5097948;28;20055;-65
2023/08/02 01:12:56;;;;;;;1.67;1.52;;;;;;;17.00;96.67;98712.72;5097591;28;20136;-65
2023/08/02 01:15:28;;;;;;;2.60;2.03;;;;;;;17.03;96.61;98716.91;5096335;28;20086;-65
2023/08/02 01:17:59;;;;;;;1.90;1.73;;;;;;;16.92;96.17;98714.78;5096287;28;20044;-64
2023/08/02 01:20:30;;;;;;;1.15;1.05;;;;;;;16.83;96.08;98714.31;5097393;28;20127;-65
2023/08/02 01:22:59;;;;;;;1.85;1.60;;;;;;;16.82;95.86;98708.31;5097456;28;20048;-65
2023/08/02 01:25:32;;;;;;;3.25;2.10;;;;;;;16.78;95.70;98701.63;5097658;28;20394;-64
2023/08/02 01:28:07;;;;;;;2.67;2.05;;;;;;;16.83;95.64;98712.59;5097325;28;20097;-65
2023/08/02 01:30:39;;;;;;;2.00;1.80;;;;;;;16.87;95.34;98716.69;5096153;28;20464;-65
2023/08/02 01:33:09;;;;;;;2.63;1.55;;;;;;;16.86;95.47;98715.03;5096074;28;20374;-64
2023/08/02 01:35:40;;;;;;;2.67;2.38;;;;;;;16.81;95.33;98709.25;5096018;28;20383;-64
2023/08/02 01:38:09;;;;;;;2.30;1.73;;;;;;;16.77;95.48;98710.28;5097178;28;20127;-65
2023/08/02 01:40:38;;;;;;;2.25;1.80;;;;;;;16.72;95.32;98712.19;5097040;28;20036;-65
2023/08/02 01:43:07;;;;;;;1.17;1.07;;;;;;;16.70;95.60;98706.25;5097044;28;20424;-65
2023/08/02 01:45:36;;;;;;;3.22;1.15;;;;;;;16.70;95.41;98714.81;5096936;28;20127;-65
2023/08/02 01:48:05;;;;;;;2.67;1.73;;;;;;;16.69;95.45;98717.47;5095909;28;20101;-65
2023/08/02 01:50:34;;;;;;;2.60;1.70;;;;;;;16.68;95.54;98713.19;5096905;28;20273;-65
2023/08/02 01:53:04;;;;;;;2.05;1.48;;;;;;;16.63;95.42;98712.56;5095873;28;20401;-64
2023/08/02 01:55:33;;;;;;;3.80;2.10;;;;;;;16.56;94.85;98716.28;5095655;28;20044;-64
2023/08/02 01:58:02;;;;;;;1.20;1.07;;;;;;;16.52;95.25;98719.88;5095647;28;20048;-65
2023/08/02 02:00:31;;;;;;;1.75;1.65;;;;;;;16.48;94.50;98723.47;5095803;28;20070;-65
2023/08/02 02:03:00;;;;;;;2.80;2.20;;;;;;;16.44;94.53;98724.47;5095766;28;20438;-64
2023/08/02 02:05:30;;;;;;;1.55;1.13;;;;;;;16.45;94.60;98718.41;5096557;28;20406;-64
2023/08/02 02:07:59;;;;;;;3.17;2.88;;;;;;;16.47;94.82;98721.78;5095557;28;20131;-64
2023/08/02 02:10:30;;;;;;;1.53;1.43;;;;;;;16.59;95.02;98727.31;5097153;28;20044;-64
2023/08/02 02:12:59;;;;;;;1.52;1.38;;;;;;;16.64;94.79;98724.53;5096436;28;20494;-65
2023/08/02 02:15:28;;;;;;;2.13;1.93;;;;;;;16.68;94.85;98715.78;5095775;28;20409;-65
2023/08/02 02:17:57;;;;;;;2.97;1.75;;;;;;;16.69;95.06;98714.91;5095234;28;20494;-65
2023/08/02 02:20:26;;;;;;;2.63;2.03;;;;;;;16.68;95.58;98715.78;5095675;28;20040;-65
2023/08/02 02:22:57;;;;;;;1.93;1.17;;;;;;;16.74;96.20;98725.84;5095062;28;20517;-65
2023/08/02 02:25:26;;;;;;;2.78;1.80;;;;;;;16.77;96.25;98724.91;5096515;28;20155;-65
2023/08/02 02:27:56;;;;;;;3.42;1.75;;;;;;;16.84;96.53;98726.31;5095163;28;20127;-65
2023/08/02 02:30:27;;;;;;;5.18;2.22;;;;;;;16.83;96.82;98730.63;5095139;28;20047;-65
2023/08/02 02:32:55;;;;;;;2.13;1.90;;;;;;;16.80;97.25;98724.75;5096330;28;20444;-65
2023/08/02 02:35:24;;;;;;;1.75;1.50;;;;;;;16.83;96.81;98740.09;5095971;28;20101;-65
2023/08/02 02:37:53;;;;;;;2.93;2.33;;;;;;;16.82;97.23;98736.66;5094705;28;20044;-65
2023/08/02 02:40:22;;;;;;;1.35;1.20;;;;;;;16.82;97.52;98744.41;5096141;28;20105;-64
2023/08/02 02:42:51;;;;;;;5.40;2.35;;;;;;;16.82;97.81;98749.56;5094636;28;20048;-65
2023/08/02 02:45:22;;;;;;;3.47;2.58;;;;;;;16.77;97.70;98751.50;5095814;28;20386;-65
2023/08/02 02:47:50;;;;;;;2.00;1.73;;;;;;;16.72;98.02;98751.66;5096297;28;20054;-64
2023/08/02 02:50:19;;;;;;;6.13;1.67;;;;;;;16.67;98.38;98760.50;5095638;28;20097;-66
2023/08/02 02:52:48;;;;;;;1.53;1.43;;;;;;;16.63;98.66;98774.38;5094808;28;20036;-65
2023/08/02 02:55:17;;;;;;;1.90;1.70;;;;;;;16.63;98.57;98769.22;5095896;28;20047;-67
2023/08/02 02:57:46;;;;;;;2.28;1.88;;;;;;;16.59;98.73;98772.84;5094271;28;20040;-65
2023/08/02 03:00:15;;;;;;;3.55;2.53;;;;;;;16.59;98.90;98767.69;5095488;28;20398;-65
2023/08/02 03:02:45;;;;;;;9.15;1.33;;;;;;;16.57;99.02;98769.50;5095451;28;20040;-65
2023/08/02 03:05:15;;;;;;;1.63;1.52;;;;;;;16.52;99.12;98768.81;5095415;28;20052;-65
2023/08/02 03:07:43;;;;;;;4.65;2.78;;;;;;;16.55;99.16;98763.56;5095391;28;20093;-65
2023/08/02 03:10:12;;;;;;;2.83;1.88;;;;;;;16.63;99.51;98764.09;5095468;28;20440;-65
2023/08/02 03:12:41;;;;;;;2.07;1.87;;;;;;;16.69;99.31;98758.69;5095535;28;20047;-64
2023/08/02 03:15:10;;;;;;;4.22;2.33;;;;;;;16.67;99.35;98755.34;5095233;28;20043;-65
2023/08/02 03:17:39;;;;;;;1.80;1.67;;;;;;;16.58;99.28;98755.72;5095079;28;20043;-65
2023/08/02 03:20:10;;;;;;;1.80;1.70;;;;;;;16.52;99.19;98755.94;5095059;28;20040;-65
2023/08/02 03:22:39;;;;;;;1.90;1.73;;;;;;;16.51;99.31;98759.38;5095155;28;20268;-65
2023/08/02 03:25:08;;;;;;;5.27;4.00;;;;;;;16.45;99.02;98759.63;5095041;28;20070;-65
2023/08/02 03:27:39;;;;;;;1.70;1.52;;;;;;;16.40;98.90;98764.97;5094968;28;20130;-65
2023/08/02 03:30:08;;;;;;;6.40;2.25;;;;;;;16.36;98.97;98762.56;5095227;28;20093;-63
2023/08/02 03:32:37;;;;;;;4.35;2.67;;;;;;;16.35;98.98;98763.47;5094876;28;20051;-64
2023/08/02 03:35:07;;;;;;;2.75;2.10;;;;;;;16.37;99.03;98766.81;5094671;28;20497;-65
2023/08/02 03:37:37;;;;;;;;;;;;;;;16.41;98.76;98763.25;5095693;28;20032;-64
2023/08/02 03:40:07;;;;;;;1.63;1.52;;;;;;;16.40;98.43;98766.69;5095690;28;20277;-65
2023/08/02 03:42:36;;;;;;;2.03;1.75;;;;;;;16.41;98.39;98763.25;5094682;28;20509;-65
2023/08/02 03:45:06;;;;;;;3.03;2.35;;;;;;;16.38;98.08;98763.34;5094624;28;20040;-65
2023/08/02 03:47:34;;;;;;;;;;;;;;;16.37;97.90;98769.38;5095296;28;20062;-65
2023/08/02 03:50:03;;;;;;;2.90;1.38;;;;;;;16.32;98.06;98784.16;5094496;28;19920;-65
2023/08/02 03:52:32;;;;;;;3.65;2.40;;;;;;;16.29;97.78;98789.47;5094534;28;20040;-65
2023/08/02 03:55:02;;;;;;;4.03;2.75;;;;;;;16.27;97.68;98786.13;5094755;28;20039;-65
2023/08/02 03:57:31;;;;;;;2.80;1.73;;;;;;;16.23;97.33;98787.94;5094605;28;20040;-65
2023/08/02 04:00:00;;;;;;;2.43;1.83;;;;;;;16.25;97.62;98787.88;5094744;28;20047;-63
2023/08/02 04:02:29;;;;;;;3.80;2.65;;;;;;;16.30;97.82;98780.81;5094610;28;20059;-65
2023/08/02 04:04:58;;;;;;;1.67;1.57;;;;;;;16.31;97.54;98785.09;5094273;28;20127;-64
2023/08/02 04:07:27;;;;;;;2.95;2.08;;;;;;;16.35;97.62;98789.22;5094833;28;20043;-64
2023/08/02 04:09:56;;;;;;;2.40;1.50;;;;;;;16.37;97.69;98795.13;5094276;28;20109;-65
2023/08/02 04:12:26;;;;;;;2.92;2.63;;;;;;;16.39;97.89;98798.50;5094424;28;20079;-66
2023/08/02 04:14:55;;;;;;;1.60;1.38;;;;;;;16.42;98.10;98798.38;5094457;28;20074;-65
2023/08/02 04:17:26;;;;;;;2.10;1.83;;;;;;;16.42;97.98;98796.66;5094328;28;20059;-66
2023/08/02 04:19:54;;;;;;;2.60;2.33;;;;;;;16.50;98.35;98801.50;5094385;28;20091;-65
2023/08/02 04:22:23;;;;;;;1.37;1.27;;;;;;;16.54;98.43;98803.09;5094408;28;20035;-65
2023/08/02 04:24:52;;;;;;;1.27;1.15;;;;;;;16.60;98.59;98795.94;5093925;28;20040;-63
2023/08/02 04:27:21;;;;;;;2.43;1.83;;;;;;;16.65;98.58;98788.06;5093973;28;20561;-64
2023/08/02 04:29:51;;;;;;;2.70;2.47;;;;;;;16.67;98.42;98791.41;5093945;28;20276;-64
2023/08/02 04:32:20;;;;;;;1.95;1.73;;;;;;;16.62;98.37;98793.34;5094174;28;20052;-65
2023/08/02 04:34:49;;;;;;;1.58;1.33;;;;;;;16.54;98.24;98793.63;5093609;28;20047;-63
2023/08/02 04:37:18;;;;;;;2.05;1.83;;;;;;;16.47;98.51;98793.91;5093835;28;20043;-65
2023/08/02 04:39:47;;;;;;;3.40;2.23;;;;;;;16.46;98.58;98805.13;5093672;28;20406;-65
2023/08/02 04:42:16;;;;;;;2.17;1.92;;;;;;;16.49;98.95;98802.41;5092305;28;20433;-65
2023/08/02 04:44:45;;;;;;;3.30;2.22;;;;;;;16.49;98.78;98802.41;5094014;28;20402;-65
2023/08/02 04:47:16;;;;;;;7.13;2.60;;;;;;;16.50;99.26;98796.34;5094489;28;20040;-65
2023/08/02 04:49:45;;;;;;;6.50;3.08;;;;;;;16.53;98.98;98806.59;5094269;28;20094;-65
2023/08/02 04:52:13;;;;;;;5.13;3.72;;;;;;;16.59;99.39;98796.88;5093605;28;20123;-65
2023/08/02 04:54:42;;;;;;;2.15;1.95;;;;;;;16.69;99.33;98799.94;5093662;28;20558;-64
2023/08/02 04:57:11;;;;;;;4.93;2.00;;;;;;;16.77;99.44;98797.91;5093876;28;20051;-65
2023/08/02 04:59:40;;;;;;;1.50;1.40;;;;;;;16.83;99.69;98791.63;5093866;28;20479;-65
2023/08/02 05:02:09;;;;;;;2.13;1.40;;;;;;;16.88;99.40;98790.56;5094316;28;20293;-65
2023/08/02 05:04:39;;;;;;;3.67;2.78;;;;;;;17.04;99.49;98790.75;5093402;28;20036;-65
2023/08/02 05:07:08;;;;;;;1.70;1.60;;;;;;;17.07;99.22;98778.59;5093697;28;20040;-65
2023/08/02 05:09:36;;;;;;;1.40;1.07;;;;;;;17.08;99.22;98782.00;5093820;28;20051;-65
2023/08/02 05:12:07;;;;;;;1.00;0.95;;;;;;;17.04;98.88;98778.72;5093466;28;20047;-65
2023/08/02 05:14:35;;;;;;;2.00;1.88;;;;;;;16.93;98.63;98783.47;5093653;28;20044;-63
2023/08/02 05:17:07;;;;;;;3.27;1.57;;;;;;;16.91;98.66;98785.28;5093701;28;20044;-63
2023/08/02 05:19:36;;;;;;;1.60;1.50;;;;;;;16.94;98.22;98785.13;5093332;28;20036;-64
2023/08/02 05:22:07;;;;;;;1.50;1.30;;;;;;;17.08;98.20;98797.50;5093676;28;20478;-64
2023/08/02 05:24:36;;;;;;;1.58;1.27;;;;;;;17.09;97.88;98794.84;5093372;28;20051;-64
2023/08/02 05:27:05;;;;;;;3.10;1.67;;;;;;;17.12;97.72;98802.44;5093651;28;20070;-65
2023/08/02 05:29:33;;;;;;;1.33;1.23;;;;;;;17.15;97.52;98804.91;5093255;28;20127;-65
2023/08/02 05:32:02;;;;;;;3.00;1.43;;;;;;;17.17;97.09;98808.25;5093238;28;20042;-64
2023/08/02 05:34:31;;;;;;;1.05;0.95;;;;;;;17.19;96.72;98819.34;5093141;28;20127;-64
2023/08/02 05:37:00;;;;;;;2.03;1.77;;;;;;;17.23;96.86;98828.63;5093780;28;20052;-65
2023/08/02 05:39:30;;;;;;;1.02;0.88;;;;;;;17.29;96.60;98827.53;5093121;28;20041;-65
2023/08/02 05:41:59;;;;;;;2.75;1.38;;;;;;;17.26;96.19;98825.94;5093264;28;20398;-64
2023/08/02 05:44:28;;;;;;;1.50;1.40;;;;;;;17.28;96.36;98831.84;5093676;28;20090;-64
2023/08/02 05:46:58;;;;;;;1.33;1.20;;;;;;;17.30;96.31;98837.78;5093086;28;20048;-65
2023/08/02 05:49:27;;;;;;;4.22;2.35;;;;;;;17.29;96.23;98833.53;5092827;28;20052;-64
2023/08/02 05:51:55;;;;;;;1.77;1.63;;;;;;;17.31;96.05;98826.59;5093671;28;20093;-65
2023/08/02 05:54:24;;;;;;;1.95;1.77;;;;;;;17.47;96.19;98831.09;5093318;28;20318;-65
2023/08/02 05:56:54;;;;;;;1.83;1.08;;;;;;;17.70;96.59;98833.56;5096864;28;20044;-64
2023/08/02 05:59:23;;;;;;;1.80;1.50;;;;;;;17.81;96.07;98826.19;5096915;28;20105;-64
2023/08/02 06:01:52;;;;;;;3.00;2.07;;;;;;;17.82;95.53;98830.47;5096898;28;20051;-64
2023/08/02 06:04:21;;;;;;;0.83;0.83;;;;;;;17.93;95.54;98825.66;5096590;28;20285;-64
2023/08/02 06:06:50;;;;;;;3.42;1.05;;;;;;;17.95;94.99;98826.41;5097149;28;20073;-65
2023/08/02 06:09:19;;;;;;;2.47;1.20;;;;;;;17.98;94.55;98828.88;5096125;28;20040;-65
2023/08/02 06:11:48;;;;;;;;;;;;;;;18.09;94.14;98837.00;5097414;28;20040;-64
2023/08/02 06:14:18;;;;;;;1.20;1.08;;;;;;;18.25;93.88;98830.22;5096386;28;19920;-64
2023/08/02 06:16:47;;;;;;;0.85;0.85;;;;;;;18.42;93.21;98840.63;5096607;28;20058;-63
2023/08/02 06:19:15;;;;;;;2.30;1.77;;;;;;;18.52;93.27;98836.72;5096516;28;20036;-64
2023/08/02 06:21:44;;;;;;;1.25;1.15;;;;;;;18.50;92.47;98833.38;5096182;28;20051;-64
2023/08/02 06:24:13;;;;;;;0.77;0.77;;;;;;;18.43;92.05;98834.53;5096226;28;20044;-64
2023/08/02 06:26:42;;;;;;;0.93;0.90;;;;;;;18.43;91.87;98837.13;5096153;28;20056;-64
2023/08/02 06:29:13;;;;;;;1.00;0.93;;;;;;;18.41;91.57;98838.94;5096814;28;20061;-64
2023/08/02 06:31:44;;;;;;;1.73;1.40;;;;;;;18.24;91.16;98835.44;5094533;28;20047;-65
2023/08/02 06:34:13;;;;;;;4.68;2.15;;;;;;;18.23;91.43;98850.13;5096148;28;20052;-65
2023/08/02 06:36:42;;;;;;;1.55;1.45;;;;;;;18.30;91.62;98836.03;5095944;28;20048;-64
2023/08/02 06:39:11;;;;;;;1.27;1.17;;;;;;;18.48;91.46;98831.78;5095667;28;20040;-64
2023/08/02 06:41:40;;;;;;;1.02;0.80;;;;;;;18.69;91.41;98838.56;5095922;28;20486;-63
2023/08/02 06:44:09;;;;;;;2.80;1.20;;;;;;;18.84;91.27;98831.78;5094573;28;20074;-63
2023/08/02 06:46:38;;;;;;;1.77;1.67;;;;;;;19.01;91.00;98835.25;5095782;28;20110;-64
2023/08/02 06:49:08;;;;;;;0.70;0.70;;;;;;;19.16;90.77;98833.69;5095715;28;20117;-64
2023/08/02 06:51:37;;;;;;;1.50;1.05;;;;;;;19.17;90.56;98841.34;5096272;28;20048;-64
2023/08/02 06:54:06;;;;;;;0.80;0.80;;;;;;;19.31;90.41;98848.47;5095669;28;20050;-63
2023/08/02 06:56:35;;;;;;;1.75;1.40;;;;;;;19.49;90.24;98847.56;5095777;28;20032;-64
2023/08/02 06:59:03;;;;;;;3.17;1.53;;;;;;;19.65;89.99;98851.03;5095759;28;20040;-65
2023/08/02 07:01:32;;;;;;;0.98;0.95;;;;;;;19.83;89.63;98844.94;5095391;28;20277;-63
2023/08/02 07:04:01;;;;;;;1.20;1.10;;;;;;;19.83;89.07;98836.31;5095464;28;20043;-64
2023/08/02 07:06:33;;;;;;;1.05;0.95;;;;;;;19.69;87.94;98842.22;5095656;28;20708;-65
2023/08/02 07:09:02;;;;;;;1.05;0.85;;;;;;;19.67;87.47;98843.22;5095670;28;20539;-64
2023/08/02 07:11:31;;;;;;;1.40;0.90;;;;;;;19.79;86.62;98840.84;5095275;28;20036;-64
2023/08/02 07:14:05;;;;;;;1.17;0.93;;;;;;;19.92;85.57;98844.47;5095497;28;20067;-65
2023/08/02 07:16:34;;;;;;;0.67;0.67;;;;;;;20.08;85.06;98846.25;5095510;28;20402;-65
2023/08/02 07:19:03;;;;;;;0.60;0.60;;;;;;;20.20;83.63;98845.63;5095340;28;20794;-64
2023/08/02 07:21:33;;;;;;;0.40;0.40;;;;;;;20.38;82.49;98835.13;5095375;28;20074;-63
2023/08/02 07:24:02;;;;;;;0.90;0.90;;;;;;;20.61;81.43;98831.28;5088657;28;20119;-64
2023/08/02 07:26:31;;;;;;;0.97;0.83;;;;;;;20.78;80.27;98835.56;5086111;28;20090;-64
2023/08/02 07:29:00;;;;;;;0.70;0.70;;;;;;;20.81;79.24;98836.19;5084498;28;20304;-63
2023/08/02 07:31:28;;;;;;;0.50;0.50;;;;;;;21.01;78.62;98841.13;5077217;28;20041;-64
2023/08/02 07:33:57;;;;;;;0.50;0.50;;;;;;;21.15;77.78;98837.75;5074593;28;20289;-64
2023/08/02 07:36:26;;;;;;;0.50;0.50;;;;;;;21.25;76.73;98828.53;5077578;28;20043;-64
2023/08/02 07:38:57;;;;;;;1.38;0.90;;;;;;;21.35;75.63;98830.50;5085285;28;20123;-64
2023/08/02 07:41:27;;;;;;;0.55;0.55;;;;;;;21.25;73.80;98839.75;5084912;28;20119;-64
2023/08/02 07:43:55;;;;;;;0.50;0.50;;;;;;;21.20;73.54;98826.22;5094120;28;20139;-64
2023/08/02 07:46:24;;;;;;;0.60;0.60;;;;;;;21.35;73.78;98835.69;5084676;28;20489;-64
2023/08/02 07:48:55;;;;;;;0.50;0.50;;;;;;;21.52;73.73;98833.88;5085134;28;20494;-65
2023/08/02 07:51:23;;;;;;;0.50;0.50;;;;;;;21.63;73.11;98828.88;5087948;28;20134;-64
2023/08/02 07:53:52;;;;;;;0.70;0.70;;;;;;;21.70;72.92;98830.19;5086146;28;20032;-64
2023/08/02 07:56:22;;;;;;;0.60;0.60;;;;;;;21.83;72.56;98833.75;5092867;28;20368;-64
2023/08/02 07:58:51;;;;;;;1.10;1.00;;;;;;;21.86;72.37;98833.56;5089857;28;20075;-64
2023/08/02 08:01:21;;;;;;;0.75;0.75;;;;;;;21.95;71.89;98839.03;5075795;28;20037;-64
2023/08/02 08:03:49;;;;;;;0.88;0.80;;;;;;;22.25;72.30;98835.50;5074353;28;20044;-64
2023/08/02 08:06:20;;;;;;;0.68;0.68;;;;;;;22.34;72.25;98830.56;5073149;28;20395;-64
2023/08/02 08:08:49;;;;;;;0.82;0.82;;;;;;;22.31;71.38;98838.59;5073965;28;20102;-64
2023/08/02 08:11:19;;;;;;;1.13;1.02;;;;;;;22.39;71.25;98846.72;5074117;28;20055;-64
2023/08/02 08:13:53;;;;;;;0.60;0.60;;;;;;;22.38;70.65;98847.69;5074538;28;20044;-64
2023/08/02 08:16:22;;;;;;;1.92;1.23;;;;;;;22.33;70.32;98851.50;5073786;28;20051;-64
2023/08/02 08:18:50;;;;;;;1.40;0.80;;;;;;;22.29;70.02;98855.22;5072184;28;20552;-64
2023/08/02 08:21:19;;;;;;;0.52;0.52;;;;;;;22.46;70.09;98848.03;5074804;28;20071;-64
2023/08/02 08:23:48;;;;;;;1.02;0.95;;;;;;;22.62;70.00;98847.94;5073548;28;20056;-64
2023/08/02 08:26:18;;;;;;;0.80;0.80;;;;;;;22.60;69.25;98845.38;5073580;28;20132;-64
2023/08/02 08:28:47;;;;;;;0.50;0.50;;;;;;;22.68;69.38;98831.94;5073583;28;20098;-64
2023/08/02 08:31:18;;;;;;;0.60;0.60;;;;;;;22.77;69.31;98833.94;5073541;28;20048;-64
2023/08/02 08:33:47;;;;;;;0.77;0.77;;;;;;;22.68;68.76;98843.19;5073776;28;20049;-64
2023/08/02 08:36:16;;;;;;;0.50;0.50;;;;;;;22.67;68.64;98844.09;5073392;28;20056;-64
2023/08/02 08:38:46;;;;;;;3.70;0.75;;;;;;;22.79;67.83;98845.13;5073576;28;20098;-64
2023/08/02 08:41:19;;;;;;;0.43;0.43;;;;;;;22.83;66.60;98840.53;5073463;28;20094;-63
2023/08/02 08:43:47;;;;;;;0.55;0.50;;;;;;;22.91;65.97;98833.91;5073831;28;20044;-64
2023/08/02 08:46:19;;;;;;;0.57;0.57;;;;;;;23.05;66.47;98843.44;5073730;28;20064;-64
2023/08/02 08:48:49;;;;;;;0.65;0.65;;;;;;;23.24;66.67;98849.09;5073514;28;20064;-64
2023/08/02 08:51:22;;;;;;;0.40;0.40;;;;;;;23.27;65.94;98847.13;5055665;28;20109;-64
2023/08/02 08:53:52;;;;;;;0.30;0.30;;;;;;;23.29;64.65;98847.88;5073319;28;20037;-64
2023/08/02 08:56:25;;;;;;;0.60;0.60;;;;;;;23.21;63.27;98831.91;5073824;28;20441;-64
2023/08/02 08:58:55;;;;;;;0.50;0.50;;;;;;;23.25;62.55;98827.34;5073380;28;20097;-64
2023/08/02 09:01:26;;;;;;;0.68;0.68;;;;;;;23.39;62.48;98829.91;5073591;28;20037;-64
2023/08/02 09:03:57;;;;;;;0.85;0.85;;;;;;;23.44;61.52;98835.66;5072366;28;20439;-64
2023/08/02 09:06:27;;;;;;;1.85;0.60;;;;;;;23.50;61.71;98830.00;5073368;28;20044;-64
2023/08/02 09:08:56;;;;;;;0.50;0.50;;;;;;;23.43;60.47;98826.16;5073583;28;20040;-65
2023/08/02 09:11:26;;;;;;;0.60;0.60;;;;;;;23.54;60.45;98810.63;5073251;28;20045;-64
2023/08/02 09:14:11;;;;;;;0.68;0.60;;;;;;;23.59;60.06;98813.75;5073249;28;20144;-64
2023/08/02 09:16:57;;;;;;;0.52;0.52;;;;;;;23.65;60.12;98817.72;5073580;28;20413;-64
2023/08/02 09:19:27;;;;;;;0.70;0.70;;;;;;;23.82;60.69;98812.22;5072992;28;20048;-63
2023/08/02 09:22:08;;;;;;;0.98;0.60;;;;;;;24.14;61.16;98807.41;5073152;28;20048;-64
2023/08/02 09:24:38;;;;;;;0.80;0.80;;;;;;;24.19;60.04;98810.50;5073094;28;20040;-64
2023/08/02 09:27:08;;;;;;;0.40;0.40;;;;;;;24.13;58.42;98814.41;5073429;28;20037;-63
2023/08/02 09:29:44;;;;;;;0.65;0.65;;;;;;;24.04;58.15;98816.78;5075005;28;20037;-64
2023/08/02 09:32:15;;;;;;;0.75;0.75;;;;;;;24.02;57.24;98809.88;5077617;28;20075;-64
2023/08/02 09:34:46;;;;;;;0.52;0.52;;;;;;;24.06;56.46;98804.47;5076663;28;20529;-64
2023/08/02 09:37:17;;;;;;;0.50;0.50;;;;;;;24.22;56.49;98808.53;5077098;28;20406;-65
2023/08/02 09:39:51;;;;;;;0.50;0.50;;;;;;;24.38;57.25;98810.88;5075959;28;20046;-65
2023/08/02 09:42:25;;;;;;;0.60;0.60;;;;;;;24.52;56.49;98813.38;5076935;28;20045;-65
2023/08/02 09:44:56;;;;;;;0.90;0.88;;;;;;;24.64;55.99;98822.94;5076698;28;20048;-64
2023/08/02 09:47:27;;;;;;;0.60;0.60;;;;;;;24.68;55.21;98808.72;5076550;28;20131;-64
2023/08/02 09:50:07;;;;;;;0.43;0.43;;;;;;;24.72;54.91;98815.38;5076663;28;20128;-62
2023/08/02 09:52:38;;;;;;;0.73;0.73;;;;;;;24.67;54.13;98812.25;5076536;28;20066;-64
2023/08/02 09:55:08;;;;;;;0.50;0.50;;;;;;;24.68;54.63;98808.72;5076952;28;20036;-64
2023/08/02 09:57:37;;;;;;;0.40;0.40;;;;;;;24.80;55.51;98807.84;5076445;28;20490;-64
2023/08/02 10:00:08;;;;;;;0.60;0.60;;;;;;;24.79;55.29;98806.19;5076657;28;20033;-64
2023/08/02 10:02:45;;;;;;;0.60;0.60;;;;;;;24.82;55.29;98799.91;5076870;28;20478;-64
2023/08/02 10:05:14;;;;;;;2.55;1.58;;;;;;;24.90;55.08;98805.41;5076643;28;20115;-62
2023/08/02 10:07:47;;;;;;;1.33;0.45;;;;;;;24.83;54.35;98799.81;5075343;28;20086;-65
2023/08/02 10:10:21;;;;;;;0.90;0.88;;;;;;;24.97;54.90;98804.00;5076287;28;20044;-64
2023/08/02 10:12:56;;;;;;;0.55;0.55;;;;;;;25.09;54.27;98800.50;5076172;28;20052;-65
2023/08/02 10:15:27;;;;;;;1.45;0.65;;;;;;;25.08;53.73;98796.22;5076491;28;20045;-64
2023/08/02 10:17:58;;;;;;;0.40;0.40;;;;;;;24.98;53.33;98790.03;5076711;28;20105;-64
2023/08/02 10:20:27;;;;;;;0.50;0.50;;;;;;;24.76;53.59;98803.78;5075920;28;20051;-64
2023/08/02 10:22:58;;;;;;;0.43;0.43;;;;;;;24.77;54.12;98797.63;5075936;28;20037;-65
2023/08/02 10:25:27;;;;;;;0.40;0.40;;;;;;;24.57;53.66;98785.16;5075931;28;20462;-63
2023/08/02 10:27:56;;;;;;;0.40;0.40;;;;;;;24.58;54.25;98794.66;5076231;28;20047;-65
2023/08/02 10:30:25;;;;;;;0.50;0.50;;;;;;;24.61;54.45;98791.81;5076160;28;20036;-65
2023/08/02 10:33:14;;;;;;;0.52;0.52;;;;;;;24.88;54.54;98782.03;5075909;28;20094;-65
2023/08/02 10:35:55;;;;;;;0.60;0.60;;;;;;;25.10;54.58;98779.47;5075692;28;20110;-65
2023/08/02 10:38:29;;;;;;;0.98;0.95;;;;;;;24.88;53.81;98779.44;5075706;28;20048;-64
2023/08/02 10:41:05;;;;;;;0.40;0.40;;;;;;;24.71;53.81;98771.94;5074932;28;20057;-65
2023/08/02 10:43:34;;;;;;;0.50;0.50;;;;;;;24.92;54.02;98775.63;5076221;28;20444;-64
2023/08/02 10:46:18;;;;;;;0.77;0.73;;;;;;;25.11;53.90;98775.09;5075836;28;20460;-64
2023/08/02 10:48:49;;;;;;;0.40;0.40;;;;;;;25.00;53.29;98778.50;5075836;28;20044;-65
2023/08/02 10:51:30;;;;;;;0.70;0.68;;;;;;;25.00;53.19;98785.50;5075776;28;20041;-64
2023/08/02 10:54:11;;;;;;;0.60;0.60;;;;;;;24.99;52.88;98771.63;5075833;28;20052;-64
2023/08/02 10:57:06;;;;;;;0.43;0.43;;;;;;;25.01;53.86;98769.72;5075428;28;20127;-64
2023/08/02 10:59:39;;;;;;;0.40;0.40;;;;;;;24.85;53.45;98774.41;5070323;28;20073;-65
2023/08/02 11:02:11;;;;;;;0.77;0.77;;;;;;;24.72;53.55;98771.00;5075581;28;20482;-64
2023/08/02 11:04:48;;;;;;;0.63;0.63;;;;;;;24.73;52.69;98764.84;5075269;28;20044;-64
2023/08/02 11:07:19;;;;;;;0.57;0.57;;;;;;;24.64;51.75;98766.31;5075237;28;20114;-64
2023/08/02 11:09:51;;;;;;;0.43;0.43;;;;;;;24.80;51.79;98766.09;5075086;28;20067;-65
2023/08/02 11:12:22;;;;;;;0.30;0.30;;;;;;;24.98;52.79;98759.50;5075418;28;20049;-63
2023/08/02 11:14:53;;;;;;;0.50;0.50;;;;;;;25.05;52.77;98755.47;5075995;28;20041;-65
2023/08/02 11:17:23;;;;;;;0.57;0.57;;;;;;;25.08;52.70;98749.19;5075005;28;20102;-66
2023/08/02 11:19:57;;;;;;;0.43;0.43;;;;;;;25.21;52.65;98742.13;5075223;28;20139;-65
2023/08/02 11:22:35;;;;;;;0.45;0.45;;;;;;;25.26;52.49;98738.22;5074904;28;20395;-64
2023/08/02 11:25:06;;;;;;;0.50;0.50;;;;;;;25.18;52.19;98724.91;5074950;28;20068;-64
2023/08/02 11:27:36;;;;;;;0.70;0.70;;;;;;;25.18;52.75;98734.50;5074838;28;20052;-64
2023/08/02 11:30:09;;;;;;;0.57;0.57;;;;;;;25.14;52.83;98739.16;5075245;28;20036;-65
2023/08/02 11:32:43;;;;;;;;;;;;;;;24.97;54.24;98741.34;5075422;28;20056;-64
2023/08/02 11:35:17;;;;;;;1.15;1.00;;;;;;;24.86;54.88;98736.91;5074560;28;19925;-65
2023/08/02 11:37:47;;;;;;;0.50;0.50;;;;;;;24.93;54.93;98730.28;5074619;28;20051;-64
2023/08/02 11:40:15;;;;;;;;;;;;;;;24.77;54.05;98724.53;5074751;28;20048;-65
2023/08/02 11:42:50;;;;;;;0.40;0.40;;;;;;;24.71;53.08;98724.13;5074643;28;20278;-64
2023/08/02 11:45:30;;;;;;;0.60;0.60;;;;;;;24.66;52.78;98719.25;5074518;28;20585;-63
2023/08/02 11:48:00;;;;;;;0.40;0.40;;;;;;;24.58;52.65;98721.59;5074807;28;20044;-65